createdAt,value
2023-10-16T00:03:57.853Z,3.67
2023-10-16T00:08:01.136Z,3.50
2023-10-16T00:12:03.645Z,4.00
2023-10-16T00:16:06.510Z,3.83
2023-10-16T00:20:08.935Z,4.13
2023-10-16T00:24:12.861Z,4.30
2023-10-16T00:28:14.358Z,4.10
2023-10-16T00:32:16.137Z,3.90
2023-10-16T00:36:17.824Z,4.30
2023-10-16T00:40:21.086Z,3.80
2023-10-16T00:44:23.330Z,4.47
2023-10-16T00:48:25.631Z,4.40
2023-10-16T00:52:27.394Z,4.20
2023-10-16T00:56:33.527Z,4.30
2023-10-16T01:00:36.573Z,4.10
2023-10-16T01:04:38.639Z,4.67
2023-10-16T01:08:44.916Z,4.20
2023-10-16T01:12:47.754Z,4.50
2023-10-16T01:16:49.937Z,4.87
2023-10-16T01:20:51.455Z,4.33
2023-10-16T01:24:55.590Z,4.07
2023-10-16T01:29:00.120Z,4.17
2023-10-16T01:33:01.594Z,3.80
2023-10-16T01:37:03.113Z,4.30
2023-10-16T01:41:06.092Z,4.40
2023-10-16T01:45:09.101Z,4.83
2023-10-16T01:49:10.829Z,4.60
2023-10-16T01:53:12.555Z,3.67
2023-10-16T01:57:16.865Z,4.30
2023-10-16T02:01:19.866Z,4.43
2023-10-16T02:05:21.474Z,4.53
2023-10-16T02:09:23.182Z,4.30
2023-10-16T02:13:26.304Z,4.10
2023-10-16T02:17:27.857Z,3.97
2023-10-16T02:21:29.676Z,3.53
2023-10-16T02:25:33.608Z,3.87
2023-10-16T02:29:39.218Z,3.73
2023-10-16T02:33:41.030Z,3.70
2023-10-16T02:37:42.790Z,3.80
2023-10-16T02:41:44.515Z,3.87
2023-10-16T02:45:48.194Z,3.77
2023-10-16T02:49:50.006Z,4.43
2023-10-16T02:53:51.718Z,3.67
2023-10-16T02:57:53.742Z,3.60
2023-10-16T03:01:56.961Z,3.50
2023-10-16T03:06:00.252Z,3.80
2023-10-16T03:10:02.959Z,3.80
2023-10-16T03:14:04.757Z,3.63
2023-10-16T03:18:07.927Z,3.40
2023-10-16T03:22:09.496Z,3.77
2023-10-16T03:26:11.034Z,3.80
2023-10-16T03:30:14.555Z,4.07
2023-10-16T03:34:17.423Z,4.00
2023-10-16T03:38:18.882Z,4.03
2023-10-16T03:42:20.469Z,4.13
2023-10-16T03:46:23.226Z,3.53
2023-10-16T03:50:26.927Z,3.60
2023-10-16T03:54:30.020Z,3.47
2023-10-16T03:58:32.225Z,4.17
2023-10-16T04:02:33.733Z,3.83
2023-10-16T04:06:36.664Z,4.10
2023-10-16T04:10:38.183Z,3.73
2023-10-16T04:14:42.831Z,3.67
2023-10-16T04:18:44.614Z,3.40
2023-10-16T04:22:50.375Z,3.53
2023-10-16T04:26:52.670Z,3.33
2023-10-16T04:30:54.440Z,3.40
2023-10-16T04:34:56.199Z,3.10
2023-10-16T04:38:59.272Z,3.40
2023-10-16T04:43:00.770Z,3.23
2023-10-16T04:47:02.588Z,3.10
2023-10-16T04:51:29.302Z,3.17
2023-10-16T04:55:32.911Z,3.00
2023-10-16T04:59:36.248Z,3.07
2023-10-16T05:03:39.987Z,2.90
2023-10-16T05:07:42.054Z,2.73
2023-10-16T05:11:45.127Z,2.90
2023-10-16T05:15:46.707Z,2.80
2023-10-16T05:19:49.663Z,2.80
2023-10-16T05:23:51.714Z,2.80
2023-10-16T05:27:54.588Z,2.80
2023-10-16T05:32:00.634Z,2.60
2023-10-16T05:36:02.132Z,2.83
2023-10-16T05:40:04.698Z,2.83
2023-10-16T05:44:08.726Z,2.57
2023-10-16T05:48:10.573Z,2.73
2023-10-16T05:52:12.703Z,2.70
2023-10-16T05:56:14.445Z,2.80
2023-10-16T06:00:18.301Z,2.60
2023-10-16T06:04:20.426Z,3.30
2023-10-16T06:08:22.558Z,2.50
2023-10-16T06:12:25.257Z,2.20
2023-10-16T06:16:28.398Z,2.23
2023-10-16T06:20:30.328Z,2.53
2023-10-16T06:24:31.878Z,2.47
2023-10-16T06:28:34.913Z,2.50
2023-10-16T06:32:39.079Z,2.47
2023-10-16T06:36:42.152Z,2.10
2023-10-16T06:40:43.658Z,2.07
2023-10-16T06:44:46.259Z,1.90
2023-10-16T06:48:49.804Z,2.50
2023-10-16T06:52:53.367Z,2.00
2023-10-16T06:56:55.244Z,2.10
2023-10-16T07:00:57.731Z,2.13
2023-10-16T07:05:01.141Z,2.17
2023-10-16T07:09:03.084Z,2.23
2023-10-16T07:13:07.880Z,2.37
2023-10-16T07:17:09.730Z,2.03
2023-10-16T07:21:12.955Z,2.27
2023-10-16T07:25:14.842Z,2.27
2023-10-16T07:29:18.195Z,2.43
2023-10-16T07:33:20.129Z,2.50
2023-10-16T07:37:23.196Z,2.30
2023-10-16T07:41:25.294Z,2.70
2023-10-16T07:45:27.060Z,2.10
2023-10-16T07:49:28.603Z,2.20
2023-10-16T07:53:31.676Z,2.17
2023-10-16T07:57:35.117Z,2.40
2023-10-16T08:01:38.844Z,2.20
2023-10-16T08:05:43.629Z,2.40
2023-10-16T08:09:48.102Z,2.60
2023-10-16T08:13:51.127Z,2.33
2023-10-16T08:17:52.676Z,2.70
2023-10-16T08:21:54.434Z,2.87
2023-10-16T08:25:57.452Z,2.83
2023-10-16T08:29:58.918Z,3.10
2023-10-16T08:34:01.176Z,3.83
2023-10-16T08:38:04.114Z,3.60
2023-10-16T08:42:07.102Z,3.10
2023-10-16T08:46:10.831Z,3.50
2023-10-16T08:50:15.555Z,3.80
2023-10-16T08:54:17.630Z,4.30
2023-10-16T08:58:21.377Z,4.50
2023-10-16T09:02:26.190Z,5.50
2023-10-16T09:06:28.387Z,5.93
2023-10-16T09:10:33.796Z,6.27
2023-10-16T09:14:37.750Z,8.00
2023-10-16T09:18:39.557Z,9.10
2023-10-16T09:22:44.147Z,9.73
2023-10-16T09:26:45.878Z,9.57
2023-10-16T09:31:00.856Z,10.17
2023-10-16T09:35:09.136Z,9.70
2023-10-16T09:39:12.990Z,10.63
2023-10-16T09:43:14.502Z,12.33
2023-10-16T09:47:17.833Z,11.73
2023-10-16T09:51:20.735Z,11.20
2023-10-16T09:55:23.856Z,12.07
2023-10-16T09:59:27.280Z,10.80
2023-10-16T10:03:30.341Z,9.77
2023-10-16T10:07:33.363Z,9.27
2023-10-16T10:11:39.352Z,8.80
2023-10-16T10:15:45.936Z,7.27
2023-10-16T10:19:50.825Z,7.20
2023-10-16T10:23:54.802Z,6.47
2023-10-16T10:28:01.837Z,6.33
2023-10-16T10:32:11.241Z,5.83
2023-10-16T10:36:34.842Z,5.30
2023-10-16T10:40:36.999Z,4.80
2023-10-16T10:44:42.836Z,5.67
2023-10-16T10:48:44.448Z,5.00
2023-10-16T10:52:48.409Z,5.57
2023-10-16T10:56:50.250Z,5.33
2023-10-16T11:00:54.593Z,5.17
2023-10-16T11:04:59.007Z,5.30
2023-10-16T11:09:02.507Z,4.53
2023-10-16T11:13:05.083Z,4.50
2023-10-16T11:17:08.190Z,4.03
2023-10-16T11:21:10.344Z,4.30
2023-10-16T11:25:15.514Z,4.00
2023-10-16T11:29:19.197Z,4.10
2023-10-16T11:33:31.990Z,3.97
2023-10-16T11:37:34.316Z,3.27
2023-10-16T11:41:44.839Z,3.27
2023-10-16T11:45:47.605Z,3.00
2023-10-16T11:50:01.031Z,3.47
2023-10-16T11:54:03.804Z,3.40
2023-10-16T11:58:08.452Z,3.10
2023-10-16T12:02:10.448Z,2.73
2023-10-16T12:06:11.966Z,2.83
2023-10-16T12:10:14.222Z,3.57
2023-10-16T12:14:17.735Z,3.50
2023-10-16T12:18:19.247Z,3.60
2023-10-16T12:22:21.063Z,3.40
2023-10-16T12:26:23.296Z,3.40
2023-10-16T12:30:26.175Z,3.37
2023-10-16T12:34:28.055Z,4.60
2023-10-16T12:38:29.705Z,4.00
2023-10-16T12:42:32.468Z,4.87
2023-10-16T12:46:36.029Z,4.80
2023-10-16T12:50:37.586Z,5.27
2023-10-16T12:54:39.186Z,5.33
2023-10-16T12:58:41.140Z,5.00
2023-10-16T13:02:44.432Z,5.73
2023-10-16T13:06:47.044Z,4.40
2023-10-16T13:10:49.515Z,4.37
2023-10-16T13:14:52.243Z,4.27
2023-10-16T13:18:56.223Z,3.30
2023-10-16T13:22:58.595Z,4.10
2023-10-16T13:27:00.957Z,3.63
2023-10-16T13:31:02.937Z,3.67
2023-10-16T13:35:09.759Z,3.30
2023-10-16T13:39:11.461Z,3.00
2023-10-16T13:43:13.391Z,2.90
2023-10-16T13:47:14.928Z,3.60
2023-10-16T13:51:18.258Z,2.83
2023-10-16T13:55:21.208Z,2.47
2023-10-16T13:59:22.780Z,2.63
2023-10-16T14:03:24.517Z,2.37
2023-10-16T14:07:27.678Z,1.90
2023-10-16T14:11:29.417Z,1.57
2023-10-16T14:15:31.316Z,1.10
2023-10-16T14:19:33.336Z,1.67
2023-10-16T14:23:36.688Z,2.00
2023-10-16T14:27:38.733Z,2.37
2023-10-16T14:31:40.364Z,1.93
2023-10-16T14:35:42.112Z,2.13
2023-10-16T14:39:45.200Z,2.20
2023-10-16T14:43:47.062Z,1.97
2023-10-16T14:47:50.663Z,2.27
2023-10-16T14:51:53.966Z,1.80
2023-10-16T14:55:57.275Z,2.20
2023-10-16T15:00:00.556Z,1.97
2023-10-16T15:04:02.130Z,2.50
2023-10-16T15:08:04.226Z,2.00
2023-10-16T15:12:09.357Z,1.70
2023-10-16T15:16:11.730Z,1.57
2023-10-16T15:20:13.618Z,1.80
2023-10-16T15:24:15.082Z,1.53
2023-10-16T15:28:32.067Z,1.87
2023-10-16T15:32:40.246Z,2.13
2023-10-16T15:36:41.847Z,2.27
2023-10-16T15:40:44.929Z,3.13
2023-10-16T15:44:48.931Z,2.50
2023-10-16T15:48:51.026Z,2.37
2023-10-16T15:52:55.154Z,2.37
2023-10-16T15:56:57.803Z,2.80
2023-10-16T16:01:00.918Z,2.27
2023-10-16T16:05:02.703Z,3.00
2023-10-16T16:09:05.111Z,2.53
2023-10-16T16:13:07.235Z,3.23
2023-10-16T16:17:10.680Z,3.00
2023-10-16T16:21:12.336Z,2.80
2023-10-16T16:25:14.432Z,2.37
2023-10-16T16:29:16.283Z,2.93
2023-10-16T16:33:19.363Z,2.60
2023-10-16T16:37:20.905Z,2.70
2023-10-16T16:41:23.448Z,3.73
2023-10-16T16:45:25.429Z,3.70
2023-10-16T16:49:28.541Z,3.83
2023-10-16T16:53:30.605Z,5.63
2023-10-16T16:57:33.192Z,4.83
2023-10-16T17:01:34.994Z,4.70
2023-10-16T17:05:37.989Z,7.73
2023-10-16T17:09:39.697Z,13.53
2023-10-16T17:13:41.541Z,9.60
2023-10-16T17:17:43.742Z,7.47
2023-10-16T17:21:46.653Z,6.67
2023-10-16T17:25:48.143Z,6.40
2023-10-16T17:29:49.864Z,6.00
2023-10-16T17:33:55.074Z,5.10
2023-10-16T17:37:58.294Z,4.80
2023-10-16T17:41:59.868Z,5.03
2023-10-16T17:46:01.491Z,6.67
2023-10-16T17:50:03.542Z,6.63
2023-10-16T17:54:07.309Z,7.03
2023-10-16T17:58:09.147Z,10.33
2023-10-16T18:02:12.722Z,10.33
2023-10-16T18:06:14.454Z,9.87
2023-10-16T18:10:18.955Z,9.33
2023-10-16T18:14:24.416Z,7.57
2023-10-16T18:18:26.053Z,7.20
2023-10-16T18:22:27.943Z,6.90
2023-10-16T18:26:30.874Z,6.77
2023-10-16T18:30:32.838Z,6.80
2023-10-16T18:34:34.545Z,7.87
2023-10-16T18:38:36.543Z,12.40
2023-10-16T18:42:41.397Z,14.67
2023-10-16T18:46:44.137Z,110.97
2023-10-16T18:50:46.486Z,63.07
2023-10-16T18:54:47.951Z,34.43
2023-10-16T18:58:51.057Z,17.20
2023-10-16T19:02:52.766Z,13.87
2023-10-16T19:06:54.647Z,11.10
2023-10-16T19:10:59.103Z,10.20
2023-10-16T19:15:02.951Z,34.80
2023-10-16T19:19:04.754Z,44.20
2023-10-16T19:23:06.505Z,22.73
2023-10-16T19:27:08.087Z,11.97
2023-10-16T19:31:12.320Z,10.83
2023-10-16T19:35:14.933Z,11.30
2023-10-16T19:39:20.889Z,11.03
2023-10-16T19:43:22.696Z,9.97
2023-10-16T19:47:25.792Z,9.30
2023-10-16T19:51:27.570Z,8.00
2023-10-16T19:55:29.314Z,8.40
2023-10-16T19:59:31.078Z,9.17
2023-10-16T20:03:34.950Z,8.50
2023-10-16T20:07:36.835Z,8.37
2023-10-16T20:11:38.428Z,8.63
2023-10-16T20:15:41.212Z,8.63
2023-10-16T20:19:44.367Z,8.13
2023-10-16T20:23:47.140Z,8.10
2023-10-16T20:27:49.353Z,7.97
2023-10-16T20:32:00.089Z,8.63
2023-10-16T20:36:04.373Z,10.43
2023-10-16T20:40:07.051Z,11.47
2023-10-16T20:44:09.993Z,8.90
2023-10-16T20:48:13.353Z,9.03
2023-10-16T20:52:19.141Z,8.10
2023-10-16T20:56:21.094Z,8.27
2023-10-16T21:00:23.676Z,9.67
2023-10-16T21:04:26.005Z,8.53
2023-10-16T21:08:29.060Z,8.53
2023-10-16T21:12:31.032Z,7.77
2023-10-16T21:16:32.746Z,8.00
2023-10-16T21:20:34.619Z,8.43
2023-10-16T21:24:37.699Z,7.40
2023-10-16T21:28:39.167Z,7.00
2023-10-16T21:32:40.921Z,7.60
2023-10-16T21:36:42.494Z,7.03
2023-10-16T21:40:45.560Z,7.33
2023-10-16T21:44:47.276Z,8.30
2023-10-16T21:48:49.340Z,8.63
2023-10-16T21:52:50.825Z,8.53
2023-10-16T21:56:53.977Z,7.80
2023-10-16T22:00:56.730Z,7.80
2023-10-16T22:04:58.229Z,8.13
2023-10-16T22:08:59.708Z,8.23
2023-10-16T22:13:02.970Z,8.63
2023-10-16T22:17:04.462Z,7.83
2023-10-16T22:21:16.323Z,8.67
2023-10-16T22:25:20.255Z,8.30
2023-10-16T22:29:23.088Z,8.10
2023-10-16T22:33:24.627Z,8.50
2023-10-16T22:37:26.568Z,8.03
2023-10-16T22:41:29.942Z,8.03
2023-10-16T22:45:32.988Z,7.60
2023-10-16T22:49:34.695Z,8.00
2023-10-16T22:53:36.501Z,8.37
2023-10-16T22:57:37.938Z,8.10
2023-10-16T23:01:41.000Z,8.10
2023-10-16T23:05:42.777Z,7.80
2023-10-16T23:09:46.674Z,8.17
2023-10-16T23:13:48.489Z,8.37
2023-10-16T23:17:52.043Z,7.97
2023-10-16T23:21:53.922Z,8.27
2023-10-16T23:25:58.976Z,7.93
2023-10-16T23:30:00.749Z,7.87
2023-10-16T23:34:04.002Z,8.47
2023-10-16T23:38:06.826Z,8.03
2023-10-16T23:42:08.590Z,7.77
2023-10-16T23:46:10.380Z,7.50
2023-10-16T23:50:15.740Z,7.03
2023-10-16T23:54:18.086Z,6.80
2023-10-16T23:58:19.826Z,6.73
